sensor_id;sensor_type;location;lat;lon;timestamp;temperature;humidity
80579;SHT31;69939;52.402;6.608;2023-12-20T00:01:27;5.63;99.99
80579;SHT31;69939;52.402;6.608;2023-12-20T00:03:58;5.62;99.99
80579;SHT31;69939;52.402;6.608;2023-12-20T00:06:28;5.58;99.99
80579;SHT31;69939;52.402;6.608;2023-12-20T00:08:57;5.52;99.99
80579;SHT31;69939;52.402;6.608;2023-12-20T00:11:30;5.48;99.99
80579;SHT31;69939;52.402;6.608;2023-12-20T00:13:59;5.49;99.99
80579;SHT31;69939;52.402;6.608;2023-12-20T00:16:29;5.52;99.99
80579;SHT31;69939;52.402;6.608;2023-12-20T00:19:01;5.52;99.99
80579;SHT31;69939;52.402;6.608;2023-12-20T00:21:30;5.55;99.99
80579;SHT31;69939;52.402;6.608;2023-12-20T00:24:00;5.52;99.99
80579;SHT31;69939;52.402;6.608;2023-12-20T00:26:32;5.55;99.99
80579;SHT31;69939;52.402;6.608;2023-12-20T00:29:02;5.49;99.99
80579;SHT31;69939;52.402;6.608;2023-12-20T00:31:31;5.41;99.99
80579;SHT31;69939;52.402;6.608;2023-12-20T00:34:08;5.44;99.99
80579;SHT31;69939;52.402;6.608;2023-12-20T00:36:37;5.44;99.99
80579;SHT31;69939;52.402;6.608;2023-12-20T00:39:07;5.41;99.99
80579;SHT31;69939;52.402;6.608;2023-12-20T00:41:37;5.42;99.99
80579;SHT31;69939;52.402;6.608;2023-12-20T00:44:06;5.38;99.99
80579;SHT31;69939;52.402;6.608;2023-12-20T00:46:35;5.38;99.99
80579;SHT31;69939;52.402;6.608;2023-12-20T00:49:07;5.28;99.99
80579;SHT31;69939;52.402;6.608;2023-12-20T00:51:37;5.27;99.99
80579;SHT31;69939;52.402;6.608;2023-12-20T00:54:06;5.21;99.99
80579;SHT31;69939;52.402;6.608;2023-12-20T00:56:36;5.23;99.99
80579;SHT31;69939;52.402;6.608;2023-12-20T00:59:06;5.27;99.99
80579;SHT31;69939;52.402;6.608;2023-12-20T01:01:36;5.24;99.99
80579;SHT31;69939;52.402;6.608;2023-12-20T01:04:11;5.25;99.99
80579;SHT31;69939;52.402;6.608;2023-12-20T01:06:40;5.20;99.99
80579;SHT31;69939;52.402;6.608;2023-12-20T01:09:09;5.21;99.99
80579;SHT31;69939;52.402;6.608;2023-12-20T01:11:39;5.17;99.99
80579;SHT31;69939;52.402;6.608;2023-12-20T01:14:08;5.14;99.99
80579;SHT31;69939;52.402;6.608;2023-12-20T01:16:37;5.10;99.99
80579;SHT31;69939;52.402;6.608;2023-12-20T01:19:10;5.08;99.99
80579;SHT31;69939;52.402;6.608;2023-12-20T01:21:39;5.15;99.99
80579;SHT31;69939;52.402;6.608;2023-12-20T01:24:10;5.18;99.99
80579;SHT31;69939;52.402;6.608;2023-12-20T01:26:39;5.18;99.99
80579;SHT31;69939;52.402;6.608;2023-12-20T01:29:09;5.08;99.99
80579;SHT31;69939;52.402;6.608;2023-12-20T01:31:39;5.08;99.99
80579;SHT31;69939;52.402;6.608;2023-12-20T01:34:11;5.13;99.99
80579;SHT31;69939;52.402;6.608;2023-12-20T01:36:41;5.15;99.99
80579;SHT31;69939;52.402;6.608;2023-12-20T01:39:10;5.20;99.99
80579;SHT31;69939;52.402;6.608;2023-12-20T01:41:41;5.21;99.99
80579;SHT31;69939;52.402;6.608;2023-12-20T01:44:11;5.23;99.99
80579;SHT31;69939;52.402;6.608;2023-12-20T01:46:41;5.24;99.99
80579;SHT31;69939;52.402;6.608;2023-12-20T01:49:13;5.31;99.99
80579;SHT31;69939;52.402;6.608;2023-12-20T01:51:45;5.34;99.99
80579;SHT31;69939;52.402;6.608;2023-12-20T01:54:15;5.31;99.99
80579;SHT31;69939;52.402;6.608;2023-12-20T01:56:46;5.32;99.99
80579;SHT31;69939;52.402;6.608;2023-12-20T01:59:18;5.30;99.99
80579;SHT31;69939;52.402;6.608;2023-12-20T02:01:50;5.34;99.99
80579;SHT31;69939;52.402;6.608;2023-12-20T02:04:22;5.31;99.99
80579;SHT31;69939;52.402;6.608;2023-12-20T02:06:53;5.34;99.99
80579;SHT31;69939;52.402;6.608;2023-12-20T02:09:23;5.36;99.58
80579;SHT31;69939;52.402;6.608;2023-12-20T02:11:54;5.35;99.23
80579;SHT31;69939;52.402;6.608;2023-12-20T02:14:24;5.36;99.32
80579;SHT31;69939;52.402;6.608;2023-12-20T02:16:54;5.34;99.29
80579;SHT31;69939;52.402;6.608;2023-12-20T02:19:26;5.35;99.60
80579;SHT31;69939;52.402;6.608;2023-12-20T02:22:08;5.38;99.65
80579;SHT31;69939;52.402;6.608;2023-12-20T02:24:38;5.41;99.91
80579;SHT31;69939;52.402;6.608;2023-12-20T02:27:10;5.39;99.99
80579;SHT31;69939;52.402;6.608;2023-12-20T02:29:41;5.46;99.99
80579;SHT31;69939;52.402;6.608;2023-12-20T02:32:10;5.44;99.99
80579;SHT31;69939;52.402;6.608;2023-12-20T02:34:40;5.46;99.99
80579;SHT31;69939;52.402;6.608;2023-12-20T02:37:15;5.58;99.99
80579;SHT31;69939;52.402;6.608;2023-12-20T02:39:45;5.54;99.99
80579;SHT31;69939;52.402;6.608;2023-12-20T02:42:14;5.49;99.99
80579;SHT31;69939;52.402;6.608;2023-12-20T02:44:43;5.52;99.94
80579;SHT31;69939;52.402;6.608;2023-12-20T02:47:13;5.52;99.95
80579;SHT31;69939;52.402;6.608;2023-12-20T02:49:42;5.48;99.99
80579;SHT31;69939;52.402;6.608;2023-12-20T02:52:14;5.46;99.99
80579;SHT31;69939;52.402;6.608;2023-12-20T02:54:43;5.49;99.99
80579;SHT31;69939;52.402;6.608;2023-12-20T02:57:13;5.46;99.99
80579;SHT31;69939;52.402;6.608;2023-12-20T02:59:42;5.45;99.99
80579;SHT31;69939;52.402;6.608;2023-12-20T03:02:13;5.42;99.99
80579;SHT31;69939;52.402;6.608;2023-12-20T03:04:42;5.41;99.99
80579;SHT31;69939;52.402;6.608;2023-12-20T03:07:15;5.46;99.99
80579;SHT31;69939;52.402;6.608;2023-12-20T03:09:44;5.52;99.99
80579;SHT31;69939;52.402;6.608;2023-12-20T03:12:14;5.54;99.99
80579;SHT31;69939;52.402;6.608;2023-12-20T03:14:45;5.58;99.88
80579;SHT31;69939;52.402;6.608;2023-12-20T03:17:15;5.56;99.89
80579;SHT31;69939;52.402;6.608;2023-12-20T03:19:44;5.52;99.90
80579;SHT31;69939;52.402;6.608;2023-12-20T03:22:16;5.56;99.92
80579;SHT31;69939;52.402;6.608;2023-12-20T03:24:46;5.62;99.85
80579;SHT31;69939;52.402;6.608;2023-12-20T03:27:15;5.65;99.65
80579;SHT31;69939;52.402;6.608;2023-12-20T03:29:45;5.72;99.55
80579;SHT31;69939;52.402;6.608;2023-12-20T03:32:14;5.73;99.56
80579;SHT31;69939;52.402;6.608;2023-12-20T03:34:43;5.77;99.38
80579;SHT31;69939;52.402;6.608;2023-12-20T03:37:16;5.79;99.56
80579;SHT31;69939;52.402;6.608;2023-12-20T03:39:51;5.82;99.38
80579;SHT31;69939;52.402;6.608;2023-12-20T03:42:21;5.90;99.25
80579;SHT31;69939;52.402;6.608;2023-12-20T03:44:53;5.92;99.26
80579;SHT31;69939;52.402;6.608;2023-12-20T03:47:22;5.96;99.20
80579;SHT31;69939;52.402;6.608;2023-12-20T03:49:53;6.04;98.76
80579;SHT31;69939;52.402;6.608;2023-12-20T03:52:24;6.06;98.75
80579;SHT31;69939;52.402;6.608;2023-12-20T03:54:57;6.11;98.48
80579;SHT31;69939;52.402;6.608;2023-12-20T03:57:29;6.10;98.45
80579;SHT31;69939;52.402;6.608;2023-12-20T03:59:58;6.10;98.44
80579;SHT31;69939;52.402;6.608;2023-12-20T04:02:28;6.11;98.30
80579;SHT31;69939;52.402;6.608;2023-12-20T04:05:04;6.06;98.52
80579;SHT31;69939;52.402;6.608;2023-12-20T04:07:34;6.09;98.37
80579;SHT31;69939;52.402;6.608;2023-12-20T04:10:05;6.13;98.48
80579;SHT31;69939;52.402;6.608;2023-12-20T04:12:39;6.13;98.36
80579;SHT31;69939;52.402;6.608;2023-12-20T04:15:14;6.14;98.49
80579;SHT31;69939;52.402;6.608;2023-12-20T04:17:43;6.16;98.52
80579;SHT31;69939;52.402;6.608;2023-12-20T04:20:13;6.16;98.30
80579;SHT31;69939;52.402;6.608;2023-12-20T04:22:42;6.17;98.39
80579;SHT31;69939;52.402;6.608;2023-12-20T04:25:12;6.18;98.47
80579;SHT31;69939;52.402;6.608;2023-12-20T04:27:41;6.18;98.28
80579;SHT31;69939;52.402;6.608;2023-12-20T04:30:16;6.20;98.47
80579;SHT31;69939;52.402;6.608;2023-12-20T04:32:45;6.21;98.23
80579;SHT31;69939;52.402;6.608;2023-12-20T04:35:15;6.25;98.09
80579;SHT31;69939;52.402;6.608;2023-12-20T04:37:41;6.25;97.94
80579;SHT31;69939;52.402;6.608;2023-12-20T04:40:11;6.17;98.32
80579;SHT31;69939;52.402;6.608;2023-12-20T04:42:42;6.21;98.22
80579;SHT31;69939;52.402;6.608;2023-12-20T04:45:14;6.16;98.52
80579;SHT31;69939;52.402;6.608;2023-12-20T04:47:45;6.09;98.52
80579;SHT31;69939;52.402;6.608;2023-12-20T04:50:15;6.11;98.63
80579;SHT31;69939;52.402;6.608;2023-12-20T04:52:45;6.10;98.48
80579;SHT31;69939;52.402;6.608;2023-12-20T04:55:15;6.14;98.39
80579;SHT31;69939;52.402;6.608;2023-12-20T04:57:45;6.13;98.65
80579;SHT31;69939;52.402;6.608;2023-12-20T05:00:18;6.17;98.44
80579;SHT31;69939;52.402;6.608;2023-12-20T05:02:47;6.20;98.32
80579;SHT31;69939;52.402;6.608;2023-12-20T05:05:17;6.18;98.35
80579;SHT31;69939;52.402;6.608;2023-12-20T05:07:47;6.18;98.29
80579;SHT31;69939;52.402;6.608;2023-12-20T05:10:18;6.22;98.08
80579;SHT31;69939;52.402;6.608;2023-12-20T05:12:47;6.28;97.72
80579;SHT31;69939;52.402;6.608;2023-12-20T05:15:19;6.30;97.48
80579;SHT31;69939;52.402;6.608;2023-12-20T05:17:49;6.28;97.58
80579;SHT31;69939;52.402;6.608;2023-12-20T05:20:18;6.32;97.43
80579;SHT31;69939;52.402;6.608;2023-12-20T05:22:49;6.35;97.39
80579;SHT31;69939;52.402;6.608;2023-12-20T05:25:18;6.35;97.35
80579;SHT31;69939;52.402;6.608;2023-12-20T05:27:48;6.38;97.32
80579;SHT31;69939;52.402;6.608;2023-12-20T05:30:20;6.45;96.85
80579;SHT31;69939;52.402;6.608;2023-12-20T05:32:49;6.42;97.06
80579;SHT31;69939;52.402;6.608;2023-12-20T05:35:20;6.41;97.07
80579;SHT31;69939;52.402;6.608;2023-12-20T05:37:51;6.42;97.09
80579;SHT31;69939;52.402;6.608;2023-12-20T05:40:20;6.41;97.06
80579;SHT31;69939;52.402;6.608;2023-12-20T05:42:50;6.44;97.06
80579;SHT31;69939;52.402;6.608;2023-12-20T05:45:22;6.41;97.11
80579;SHT31;69939;52.402;6.608;2023-12-20T05:47:52;6.42;97.05
80579;SHT31;69939;52.402;6.608;2023-12-20T05:50:21;6.44;97.09
80579;SHT31;69939;52.402;6.608;2023-12-20T05:52:50;6.45;97.09
80579;SHT31;69939;52.402;6.608;2023-12-20T05:55:20;6.48;96.95
80579;SHT31;69939;52.402;6.608;2023-12-20T05:57:51;6.46;97.21
80579;SHT31;69939;52.402;6.608;2023-12-20T06:00:23;6.51;96.87
80579;SHT31;69939;52.402;6.608;2023-12-20T06:02:53;6.52;96.69
80579;SHT31;69939;52.402;6.608;2023-12-20T06:05:23;6.55;96.64
80579;SHT31;69939;52.402;6.608;2023-12-20T06:07:52;6.56;96.61
80579;SHT31;69939;52.402;6.608;2023-12-20T06:10:23;6.58;96.79
80579;SHT31;69939;52.402;6.608;2023-12-20T06:12:53;6.55;96.76
80579;SHT31;69939;52.402;6.608;2023-12-20T06:15:27;6.58;96.56
80579;SHT31;69939;52.402;6.608;2023-12-20T06:17:56;6.62;96.33
80579;SHT31;69939;52.402;6.608;2023-12-20T06:20:26;6.62;96.40
80579;SHT31;69939;52.402;6.608;2023-12-20T06:22:55;6.61;96.14
80579;SHT31;69939;52.402;6.608;2023-12-20T06:25:25;6.64;96.38
80579;SHT31;69939;52.402;6.608;2023-12-20T06:27:55;6.64;96.52
80579;SHT31;69939;52.402;6.608;2023-12-20T06:30:27;6.64;96.24
80579;SHT31;69939;52.402;6.608;2023-12-20T06:32:58;6.62;96.21
80579;SHT31;69939;52.402;6.608;2023-12-20T06:35:27;6.61;96.44
80579;SHT31;69939;52.402;6.608;2023-12-20T06:37:56;6.67;95.95
80579;SHT31;69939;52.402;6.608;2023-12-20T06:40:26;6.69;95.89
80579;SHT31;69939;52.402;6.608;2023-12-20T06:42:56;6.71;95.98
80579;SHT31;69939;52.402;6.608;2023-12-20T06:45:28;6.78;95.27
80579;SHT31;69939;52.402;6.608;2023-12-20T06:47:57;6.83;95.18
80579;SHT31;69939;52.402;6.608;2023-12-20T06:50:26;6.86;95.14
80579;SHT31;69939;52.402;6.608;2023-12-20T06:53:01;6.92;94.70
80579;SHT31;69939;52.402;6.608;2023-12-20T06:55:32;6.95;94.72
80579;SHT31;69939;52.402;6.608;2023-12-20T06:58:01;6.93;94.84
80579;SHT31;69939;52.402;6.608;2023-12-20T07:00:32;6.95;94.93
80579;SHT31;69939;52.402;6.608;2023-12-20T07:03:02;6.92;95.04
80579;SHT31;69939;52.402;6.608;2023-12-20T07:05:32;6.92;95.15
80579;SHT31;69939;52.402;6.608;2023-12-20T07:08:07;6.92;95.23
80579;SHT31;69939;52.402;6.608;2023-12-20T07:10:39;6.90;95.21
80579;SHT31;69939;52.402;6.608;2023-12-20T07:13:08;6.95;95.19
80579;SHT31;69939;52.402;6.608;2023-12-20T07:15:38;6.96;95.28
80579;SHT31;69939;52.402;6.608;2023-12-20T07:18:07;6.95;95.32
80579;SHT31;69939;52.402;6.608;2023-12-20T07:20:37;7.00;95.04
80579;SHT31;69939;52.402;6.608;2023-12-20T07:23:09;6.99;95.15
80579;SHT31;69939;52.402;6.608;2023-12-20T07:25:38;7.04;94.53
80579;SHT31;69939;52.402;6.608;2023-12-20T07:28:07;7.07;94.68
80579;SHT31;69939;52.402;6.608;2023-12-20T07:30:43;7.11;94.53
80579;SHT31;69939;52.402;6.608;2023-12-20T07:33:12;7.10;94.54
80579;SHT31;69939;52.402;6.608;2023-12-20T07:35:44;7.11;94.62
80579;SHT31;69939;52.402;6.608;2023-12-20T07:38:13;7.16;94.32
80579;SHT31;69939;52.402;6.608;2023-12-20T07:40:43;7.16;94.27
80579;SHT31;69939;52.402;6.608;2023-12-20T07:43:12;7.17;94.63
80579;SHT31;69939;52.402;6.608;2023-12-20T07:45:47;7.18;94.12
80579;SHT31;69939;52.402;6.608;2023-12-20T07:48:20;7.20;94.55
80579;SHT31;69939;52.402;6.608;2023-12-20T07:50:50;7.20;94.48
80579;SHT31;69939;52.402;6.608;2023-12-20T07:53:20;7.17;94.67
80579;SHT31;69939;52.402;6.608;2023-12-20T07:55:52;7.20;94.29
80579;SHT31;69939;52.402;6.608;2023-12-20T07:58:21;7.16;95.14
80579;SHT31;69939;52.402;6.608;2023-12-20T08:00:56;7.16;94.71
80579;SHT31;69939;52.402;6.608;2023-12-20T08:03:25;7.16;95.16
80579;SHT31;69939;52.402;6.608;2023-12-20T08:05:55;7.18;94.89
80579;SHT31;69939;52.402;6.608;2023-12-20T08:08:25;7.23;94.56
80579;SHT31;69939;52.402;6.608;2023-12-20T08:10:54;7.24;94.67
80579;SHT31;69939;52.402;6.608;2023-12-20T08:13:25;7.27;94.55
80579;SHT31;69939;52.402;6.608;2023-12-20T08:16:02;7.24;94.88
80579;SHT31;69939;52.402;6.608;2023-12-20T08:18:32;7.23;95.00
80579;SHT31;69939;52.402;6.608;2023-12-20T08:21:02;7.23;94.73
80579;SHT31;69939;52.402;6.608;2023-12-20T08:23:33;7.23;95.49
80579;SHT31;69939;52.402;6.608;2023-12-20T08:26:04;7.18;95.87
80579;SHT31;69939;52.402;6.608;2023-12-20T08:28:34;7.10;96.62
80579;SHT31;69939;52.402;6.608;2023-12-20T08:31:13;7.01;97.01
80579;SHT31;69939;52.402;6.608;2023-12-20T08:33:44;7.04;97.03
80579;SHT31;69939;52.402;6.608;2023-12-20T08:36:14;7.08;96.87
80579;SHT31;69939;52.402;6.608;2023-12-20T08:38:44;7.07;96.89
80579;SHT31;69939;52.402;6.608;2023-12-20T08:41:13;7.03;97.43
80579;SHT31;69939;52.402;6.608;2023-12-20T08:43:43;7.00;98.38
80579;SHT31;69939;52.402;6.608;2023-12-20T08:46:15;6.95;98.41
80579;SHT31;69939;52.402;6.608;2023-12-20T08:48:44;7.01;97.76
80579;SHT31;69939;52.402;6.608;2023-12-20T08:51:13;7.00;98.07
80579;SHT31;69939;52.402;6.608;2023-12-20T08:53:45;7.00;98.29
80579;SHT31;69939;52.402;6.608;2023-12-20T08:56:14;6.99;98.43
80579;SHT31;69939;52.402;6.608;2023-12-20T08:58:45;7.00;98.53
80579;SHT31;69939;52.402;6.608;2023-12-20T09:01:17;7.06;98.00
80579;SHT31;69939;52.402;6.608;2023-12-20T09:03:46;7.06;97.74
80579;SHT31;69939;52.402;6.608;2023-12-20T09:06:16;7.03;98.39
80579;SHT31;69939;52.402;6.608;2023-12-20T09:08:45;7.00;99.23
80579;SHT31;69939;52.402;6.608;2023-12-20T09:11:15;6.99;99.50
80579;SHT31;69939;52.402;6.608;2023-12-20T09:13:46;7.03;98.77
80579;SHT31;69939;52.402;6.608;2023-12-20T09:16:18;7.08;98.71
80579;SHT31;69939;52.402;6.608;2023-12-20T09:18:49;7.06;98.72
80579;SHT31;69939;52.402;6.608;2023-12-20T09:21:24;7.07;99.31
80579;SHT31;69939;52.402;6.608;2023-12-20T09:23:54;7.08;98.99
80579;SHT31;69939;52.402;6.608;2023-12-20T09:26:24;7.11;99.25
80579;SHT31;69939;52.402;6.608;2023-12-20T09:28:53;7.10;99.16
80579;SHT31;69939;52.402;6.608;2023-12-20T09:31:25;7.08;99.19
80579;SHT31;69939;52.402;6.608;2023-12-20T09:33:54;7.13;99.12
80579;SHT31;69939;52.402;6.608;2023-12-20T09:36:28;7.16;99.20
80579;SHT31;69939;52.402;6.608;2023-12-20T09:39:01;7.21;98.95
80579;SHT31;69939;52.402;6.608;2023-12-20T09:41:35;7.21;99.07
80579;SHT31;69939;52.402;6.608;2023-12-20T09:44:12;7.21;99.30
80579;SHT31;69939;52.402;6.608;2023-12-20T09:46:49;7.24;98.90
80579;SHT31;69939;52.402;6.608;2023-12-20T09:49:19;7.27;98.92
80579;SHT31;69939;52.402;6.608;2023-12-20T09:51:54;7.24;99.10
80579;SHT31;69939;52.402;6.608;2023-12-20T09:54:24;7.34;98.56
80579;SHT31;69939;52.402;6.608;2023-12-20T09:56:56;7.34;98.35
80579;SHT31;69939;52.402;6.608;2023-12-20T09:59:31;7.38;99.05
80579;SHT31;69939;52.402;6.608;2023-12-20T10:02:01;7.37;98.73
80579;SHT31;69939;52.402;6.608;2023-12-20T10:04:40;7.43;98.71
80579;SHT31;69939;52.402;6.608;2023-12-20T10:07:15;7.44;98.76
80579;SHT31;69939;52.402;6.608;2023-12-20T10:09:46;7.50;98.44
80579;SHT31;69939;52.402;6.608;2023-12-20T10:12:16;7.56;97.27
80579;SHT31;69939;52.402;6.608;2023-12-20T10:14:48;7.59;97.57
80579;SHT31;69939;52.402;6.608;2023-12-20T10:17:17;7.74;97.38
80579;SHT31;69939;52.402;6.608;2023-12-20T10:19:47;7.85;96.56
80579;SHT31;69939;52.402;6.608;2023-12-20T10:22:16;7.89;96.26
80579;SHT31;69939;52.402;6.608;2023-12-20T10:24:48;7.97;95.45
80579;SHT31;69939;52.402;6.608;2023-12-20T10:27:23;8.14;94.93
80579;SHT31;69939;52.402;6.608;2023-12-20T10:29:53;8.24;94.22
80579;SHT31;69939;52.402;6.608;2023-12-20T10:32:28;8.37;93.95
80579;SHT31;69939;52.402;6.608;2023-12-20T10:34:57;8.40;93.65
80579;SHT31;69939;52.402;6.608;2023-12-20T10:37:28;8.47;93.84
80579;SHT31;69939;52.402;6.608;2023-12-20T10:39:59;8.51;93.47
80579;SHT31;69939;52.402;6.608;2023-12-20T10:42:32;8.60;93.11
80579;SHT31;69939;52.402;6.608;2023-12-20T10:45:03;8.78;92.15
80579;SHT31;69939;52.402;6.608;2023-12-20T10:47:37;8.99;91.36
80579;SHT31;69939;52.402;6.608;2023-12-20T10:50:09;8.88;91.13
80579;SHT31;69939;52.402;6.608;2023-12-20T10:52:38;8.76;91.25
80579;SHT31;69939;52.402;6.608;2023-12-20T10:55:10;8.69;92.67
80579;SHT31;69939;52.402;6.608;2023-12-20T10:57:42;8.60;92.94
80579;SHT31;69939;52.402;6.608;2023-12-20T11:00:17;8.19;96.47
80579;SHT31;69939;52.402;6.608;2023-12-20T11:02:51;7.92;97.92
80579;SHT31;69939;52.402;6.608;2023-12-20T11:05:36;7.76;98.19
80579;SHT31;69939;52.402;6.608;2023-12-20T11:08:14;7.75;98.32
80579;SHT31;69939;52.402;6.608;2023-12-20T11:10:54;7.76;98.81
80579;SHT31;69939;52.402;6.608;2023-12-20T11:13:32;7.79;97.76
80579;SHT31;69939;52.402;6.608;2023-12-20T11:16:05;7.76;97.55
80579;SHT31;69939;52.402;6.608;2023-12-20T11:18:41;7.56;96.05
80579;SHT31;69939;52.402;6.608;2023-12-20T11:21:11;7.01;97.08
80579;SHT31;69939;52.402;6.608;2023-12-20T11:23:42;6.59;99.76
80579;SHT31;69939;52.402;6.608;2023-12-20T11:26:15;6.46;99.99
80579;SHT31;69939;52.402;6.608;2023-12-20T11:28:45;6.42;99.99
80579;SHT31;69939;52.402;6.608;2023-12-20T11:31:15;6.45;99.99
80579;SHT31;69939;52.402;6.608;2023-12-20T11:33:47;6.42;99.99
80579;SHT31;69939;52.402;6.608;2023-12-20T11:36:19;6.41;99.99
80579;SHT31;69939;52.402;6.608;2023-12-20T11:38:55;6.46;99.99
80579;SHT31;69939;52.402;6.608;2023-12-20T11:41:26;6.55;99.99
80579;SHT31;69939;52.402;6.608;2023-12-20T11:43:56;6.51;99.99
80579;SHT31;69939;52.402;6.608;2023-12-20T11:46:27;6.56;99.99
80579;SHT31;69939;52.402;6.608;2023-12-20T11:49:00;6.68;99.99
80579;SHT31;69939;52.402;6.608;2023-12-20T11:51:30;6.58;99.99
80579;SHT31;69939;52.402;6.608;2023-12-20T11:53:59;6.61;99.99
80579;SHT31;69939;52.402;6.608;2023-12-20T11:56:30;6.58;99.99
80579;SHT31;69939;52.402;6.608;2023-12-20T11:59:00;6.61;99.99
80579;SHT31;69939;52.402;6.608;2023-12-20T12:01:31;6.64;99.99
80579;SHT31;69939;52.402;6.608;2023-12-20T12:04:07;6.65;99.99
80579;SHT31;69939;52.402;6.608;2023-12-20T12:06:37;6.62;99.99
80579;SHT31;69939;52.402;6.608;2023-12-20T12:09:06;6.64;99.99
80579;SHT31;69939;52.402;6.608;2023-12-20T12:11:36;6.59;99.99
80579;SHT31;69939;52.402;6.608;2023-12-20T12:14:06;6.55;99.88
80579;SHT31;69939;52.402;6.608;2023-12-20T12:16:36;6.68;99.77
80579;SHT31;69939;52.402;6.608;2023-12-20T12:19:20;6.76;99.45
80579;SHT31;69939;52.402;6.608;2023-12-20T12:22:07;6.71;99.07
80579;SHT31;69939;52.402;6.608;2023-12-20T12:24:39;6.82;99.99
80579;SHT31;69939;52.402;6.608;2023-12-20T12:27:09;6.85;99.99
80579;SHT31;69939;52.402;6.608;2023-12-20T12:29:39;6.76;99.31
80579;SHT31;69939;52.402;6.608;2023-12-20T12:32:09;6.64;99.22
80579;SHT31;69939;52.402;6.608;2023-12-20T12:34:41;6.48;99.80
80579;SHT31;69939;52.402;6.608;2023-12-20T12:37:13;6.52;99.99
80579;SHT31;69939;52.402;6.608;2023-12-20T12:39:42;6.48;99.99
80579;SHT31;69939;52.402;6.608;2023-12-20T12:42:11;6.45;99.99
80579;SHT31;69939;52.402;6.608;2023-12-20T12:44:41;6.51;99.99
80579;SHT31;69939;52.402;6.608;2023-12-20T12:47:10;6.46;99.99
80579;SHT31;69939;52.402;6.608;2023-12-20T12:49:40;6.42;99.99
80579;SHT31;69939;52.402;6.608;2023-12-20T12:52:13;6.46;99.99
80579;SHT31;69939;52.402;6.608;2023-12-20T12:54:42;6.45;99.99
80579;SHT31;69939;52.402;6.608;2023-12-20T12:57:13;6.37;99.99
80579;SHT31;69939;52.402;6.608;2023-12-20T12:59:44;6.40;99.99
80579;SHT31;69939;52.402;6.608;2023-12-20T13:02:15;6.51;99.99
80579;SHT31;69939;52.402;6.608;2023-12-20T13:04:45;6.53;99.99
80579;SHT31;69939;52.402;6.608;2023-12-20T13:07:17;6.46;99.99
80579;SHT31;69939;52.402;6.608;2023-12-20T13:09:46;6.59;99.99
80579;SHT31;69939;52.402;6.608;2023-12-20T13:12:16;6.55;99.99
80579;SHT31;69939;52.402;6.608;2023-12-20T13:14:45;6.45;99.99
80579;SHT31;69939;52.402;6.608;2023-12-20T13:17:14;6.48;99.99
80579;SHT31;69939;52.402;6.608;2023-12-20T13:19:44;6.49;99.99
80579;SHT31;69939;52.402;6.608;2023-12-20T13:22:13;6.51;99.99
80579;SHT31;69939;52.402;6.608;2023-12-20T13:24:45;6.52;99.99
80579;SHT31;69939;52.402;6.608;2023-12-20T13:27:14;6.53;99.99
80579;SHT31;69939;52.402;6.608;2023-12-20T13:29:44;6.61;99.99
80579;SHT31;69939;52.402;6.608;2023-12-20T13:32:13;6.58;99.99
80579;SHT31;69939;52.402;6.608;2023-12-20T13:34:44;6.59;99.99
80579;SHT31;69939;52.402;6.608;2023-12-20T13:37:13;6.62;99.99
80579;SHT31;69939;52.402;6.608;2023-12-20T13:39:46;6.62;99.99
80579;SHT31;69939;52.402;6.608;2023-12-20T13:42:16;6.67;99.99
80579;SHT31;69939;52.402;6.608;2023-12-20T13:44:46;6.80;99.99
80579;SHT31;69939;52.402;6.608;2023-12-20T13:47:15;6.88;99.99
80579;SHT31;69939;52.402;6.608;2023-12-20T13:49:44;6.93;99.99
80579;SHT31;69939;52.402;6.608;2023-12-20T13:52:14;6.95;99.99
80579;SHT31;69939;52.402;6.608;2023-12-20T13:54:46;7.00;99.99
80579;SHT31;69939;52.402;6.608;2023-12-20T13:57:21;7.06;99.99
80579;SHT31;69939;52.402;6.608;2023-12-20T13:59:50;7.10;99.99
80579;SHT31;69939;52.402;6.608;2023-12-20T14:02:20;7.13;99.99
80579;SHT31;69939;52.402;6.608;2023-12-20T14:04:49;7.11;99.99
80579;SHT31;69939;52.402;6.608;2023-12-20T14:07:18;7.10;99.99
80579;SHT31;69939;52.402;6.608;2023-12-20T14:09:48;7.11;99.99
80579;SHT31;69939;52.402;6.608;2023-12-20T14:12:20;7.13;99.99
80579;SHT31;69939;52.402;6.608;2023-12-20T14:14:49;7.14;99.99
80579;SHT31;69939;52.402;6.608;2023-12-20T14:17:20;7.20;99.99
80579;SHT31;69939;52.402;6.608;2023-12-20T14:19:50;7.23;99.99
80579;SHT31;69939;52.402;6.608;2023-12-20T14:22:20;7.26;99.99
80579;SHT31;69939;52.402;6.608;2023-12-20T14:24:50;7.27;99.99
80579;SHT31;69939;52.402;6.608;2023-12-20T14:27:23;7.30;99.99
80579;SHT31;69939;52.402;6.608;2023-12-20T14:29:53;7.40;99.99
80579;SHT31;69939;52.402;6.608;2023-12-20T14:32:23;7.43;99.99
80579;SHT31;69939;52.402;6.608;2023-12-20T14:34:53;7.47;99.99
80579;SHT31;69939;52.402;6.608;2023-12-20T14:37:23;7.51;99.90
80579;SHT31;69939;52.402;6.608;2023-12-20T14:39:53;7.62;98.88
80579;SHT31;69939;52.402;6.608;2023-12-20T14:42:25;7.61;99.30
80579;SHT31;69939;52.402;6.608;2023-12-20T14:44:54;7.61;99.20
80579;SHT31;69939;52.402;6.608;2023-12-20T14:47:23;7.69;98.18
80579;SHT31;69939;52.402;6.608;2023-12-20T14:49:53;7.74;97.93
80579;SHT31;69939;52.402;6.608;2023-12-20T14:52:22;7.69;97.94
80579;SHT31;69939;52.402;6.608;2023-12-20T14:54:52;7.69;98.16
80579;SHT31;69939;52.402;6.608;2023-12-20T14:57:21;7.68;98.25
80579;SHT31;69939;52.402;6.608;2023-12-20T14:59:54;7.69;97.94
80579;SHT31;69939;52.402;6.608;2023-12-20T15:02:23;7.65;98.10
80579;SHT31;69939;52.402;6.608;2023-12-20T15:04:53;7.72;97.73
80579;SHT31;69939;52.402;6.608;2023-12-20T15:07:22;7.71;97.54
80579;SHT31;69939;52.402;6.608;2023-12-20T15:09:52;7.69;97.76
80579;SHT31;69939;52.402;6.608;2023-12-20T15:12:22;7.75;96.66
80579;SHT31;69939;52.402;6.608;2023-12-20T15:14:54;7.71;97.62
80579;SHT31;69939;52.402;6.608;2023-12-20T15:17:24;7.74;97.16
80579;SHT31;69939;52.402;6.608;2023-12-20T15:19:59;7.76;96.66
80579;SHT31;69939;52.402;6.608;2023-12-20T15:22:29;7.74;97.34
80579;SHT31;69939;52.402;6.608;2023-12-20T15:25:01;7.72;96.99
80579;SHT31;69939;52.402;6.608;2023-12-20T15:27:32;7.74;97.52
80579;SHT31;69939;52.402;6.608;2023-12-20T15:30:03;7.69;97.82
80579;SHT31;69939;52.402;6.608;2023-12-20T15:32:35;7.69;96.98
80579;SHT31;69939;52.402;6.608;2023-12-20T15:35:07;7.65;98.37
80579;SHT31;69939;52.402;6.608;2023-12-20T15:37:37;7.66;97.63
80579;SHT31;69939;52.402;6.608;2023-12-20T15:40:08;7.66;97.97
80579;SHT31;69939;52.402;6.608;2023-12-20T15:42:39;7.66;98.18
80579;SHT31;69939;52.402;6.608;2023-12-20T15:45:09;7.65;97.68
80579;SHT31;69939;52.402;6.608;2023-12-20T15:47:46;7.68;98.12
80579;SHT31;69939;52.402;6.608;2023-12-20T15:50:15;7.66;98.36
80579;SHT31;69939;52.402;6.608;2023-12-20T15:52:45;7.65;98.59
80579;SHT31;69939;52.402;6.608;2023-12-20T15:55:14;7.59;98.91
80579;SHT31;69939;52.402;6.608;2023-12-20T15:57:44;7.59;99.27
80579;SHT31;69939;52.402;6.608;2023-12-20T16:00:13;7.56;99.14
80579;SHT31;69939;52.402;6.608;2023-12-20T16:02:46;7.55;99.41
80579;SHT31;69939;52.402;6.608;2023-12-20T16:05:15;7.47;99.99
80579;SHT31;69939;52.402;6.608;2023-12-20T16:07:44;7.50;99.99